
<gpx xmlns="http://www.topografix.com/GPX/1/1" xmlns:gpxx="http://www.garmin.com/xmlschemas/GpxExtensions/v3" xmlns:xsi="http://www.w3.org/2001/XMLSchema-instance" version="1.1" creator="Adze - https://getadze.com/" xsi:schemaLocation="http://www.topografix.com/GPX/1/1 http://www.topografix.com/GPX/1/1/gpx.xsd http://www.garmin.com/xmlschemas/GpxExtensions/v3 http://www.garmin.com/xmlschemas/GpxExtensionsv3.xsd">
    <metadata>
        <name>Untitled Document</name>
        <link href="http://www.garmin.com"></link>
        <time>2018-03-08T10:33:03.267Z</time>
    </metadata>
    <wpt lon="101.491483" lat="14.598692">
        <ele>364.000000</ele>
        <name>Villas Paradis</name>
        <cmt>25-FEB-11 15:09:14</cmt>
        <desc>25-FEB-11 15:09:14</desc>
        <sym>Lodging</sym>
        <extensions>
            <gpxx:WaypointExtension xmlns:gpxx="http://www.garmin.com/xmlschemas/GpxExtensions/v3">
                <gpxx:DisplayMode>SymbolOnly</gpxx:DisplayMode>
            </gpxx:WaypointExtension>
        </extensions>
    </wpt>
    <wpt lon="101.445857" lat="14.618709">
        <ele>323.000000</ele>
        <name>February 2011 - Sunday water</name>
        <cmt>27-FEB-11 10:50:44</cmt>
        <desc>27-FEB-11 10:50:44</desc>
        <sym>Drinking Water</sym>
        <extensions>
            <gpxx:WaypointExtension xmlns:gpxx="http://www.garmin.com/xmlschemas/GpxExtensions/v3">
                <gpxx:DisplayMode>SymbolOnly</gpxx:DisplayMode>
            </gpxx:WaypointExtension>
        </extensions>
    </wpt>
    <trk>
        <name>February 2011 - Sunday</name>
        <extensions>
            <gpxx:TrackExtension xmlns:gpxx="http://www.garmin.com/xmlschemas/GpxExtensions/v3">
                <gpxx:DisplayColor>Green</gpxx:DisplayColor>
            </gpxx:TrackExtension>
        </extensions>
        <trkseg>
            <trkpt lon="101.491690" lat="14.599157">
                <ele>367.841553</ele>
                <time>2011-02-27T03:02:18Z</time>
            </trkpt>
            <trkpt lon="101.491923" lat="14.600806">
                <ele>366.880249</ele>
                <time>2011-02-27T03:03:13Z</time>
            </trkpt>
            <trkpt lon="101.480258" lat="14.603683">
                <ele>337.560059</ele>
                <time>2011-02-27T03:06:42Z</time>
            </trkpt>
            <trkpt lon="101.480123" lat="14.603919">
                <ele>338.521484</ele>
                <time>2011-02-27T03:06:51Z</time>
            </trkpt>
            <trkpt lon="101.480356" lat="14.604795">
                <ele>339.482666</ele>
                <time>2011-02-27T03:07:09Z</time>
            </trkpt>
            <trkpt lon="101.481479" lat="14.609105">
                <ele>339.002075</ele>
                <time>2011-02-27T03:08:27Z</time>
            </trkpt>
            <trkpt lon="101.481682" lat="14.610047">
                <ele>339.963379</ele>
                <time>2011-02-27T03:08:46Z</time>
            </trkpt>
            <trkpt lon="101.481559" lat="14.610220">
                <ele>340.444092</ele>
                <time>2011-02-27T03:08:52Z</time>
            </trkpt>
            <trkpt lon="101.472011" lat="14.612568">
                <ele>334.676148</ele>
                <time>2011-02-27T03:19:43Z</time>
            </trkpt>
            <trkpt lon="101.471816" lat="14.612763">
                <ele>331.792114</ele>
                <time>2011-02-27T03:22:07Z</time>
            </trkpt>
            <trkpt lon="101.471847" lat="14.613255">
                <ele>330.350220</ele>
                <time>2011-02-27T03:22:52Z</time>
            </trkpt>
            <trkpt lon="101.471829" lat="14.613260">
                <ele>329.869507</ele>
                <time>2011-02-27T03:22:57Z</time>
            </trkpt>
            <trkpt lon="101.470563" lat="14.613253">
                <ele>329.388916</ele>
                <time>2011-02-27T03:23:32Z</time>
            </trkpt>
            <trkpt lon="101.469700" lat="14.613041">
                <ele>328.908325</ele>
                <time>2011-02-27T03:23:53Z</time>
            </trkpt>
            <trkpt lon="101.470175" lat="14.615613">
                <ele>330.830933</ele>
                <time>2011-02-27T03:24:57Z</time>
            </trkpt>
            <trkpt lon="101.471968" lat="14.622799">
                <ele>342.366699</ele>
                <time>2011-02-27T03:28:31Z</time>
            </trkpt>
            <trkpt lon="101.471817" lat="14.622683">
                <ele>341.405273</ele>
                <time>2011-02-27T03:28:41Z</time>
            </trkpt>
            <trkpt lon="101.470283" lat="14.623078">
                <ele>343.808594</ele>
                <time>2011-02-27T03:29:19Z</time>
            </trkpt>
            <trkpt lon="101.469497" lat="14.623267">
                <ele>343.327881</ele>
                <time>2011-02-27T03:29:37Z</time>
            </trkpt>
            <trkpt lon="101.464000" lat="14.624576">
                <ele>333.714722</ele>
                <time>2011-02-27T03:32:18Z</time>
            </trkpt>
            <trkpt lon="101.463546" lat="14.622987">
                <ele>332.753540</ele>
                <time>2011-02-27T03:32:55Z</time>
            </trkpt>
            <trkpt lon="101.459595" lat="14.623962">
                <ele>328.427612</ele>
                <time>2011-02-27T03:34:42Z</time>
            </trkpt>
            <trkpt lon="101.459531" lat="14.624484">
                <ele>327.946777</ele>
                <time>2011-02-27T03:35:12Z</time>
            </trkpt>
            <trkpt lon="101.455865" lat="14.625426">
                <ele>327.466186</ele>
                <time>2011-02-27T03:36:35Z</time>
            </trkpt>
            <trkpt lon="101.455932" lat="14.626082">
                <ele>328.427612</ele>
                <time>2011-02-27T03:36:57Z</time>
            </trkpt>
            <trkpt lon="101.452517" lat="14.626804">
                <ele>332.753540</ele>
                <time>2011-02-27T03:38:52Z</time>
            </trkpt>
            <trkpt lon="101.451672" lat="14.626872">
                <ele>330.350220</ele>
                <time>2011-02-27T03:39:10Z</time>
            </trkpt>
            <trkpt lon="101.451115" lat="14.626655">
                <ele>328.427612</ele>
                <time>2011-02-27T03:39:26Z</time>
            </trkpt>
            <trkpt lon="101.450711" lat="14.626093">
                <ele>326.985596</ele>
                <time>2011-02-27T03:39:49Z</time>
            </trkpt>
            <trkpt lon="101.450036" lat="14.625446">
                <ele>324.582275</ele>
                <time>2011-02-27T03:40:18Z</time>
            </trkpt>
            <trkpt lon="101.449051" lat="14.623946">
                <ele>323.620972</ele>
                <time>2011-02-27T03:41:45Z</time>
            </trkpt>
            <trkpt lon="101.447747" lat="14.623239">
                <ele>321.698364</ele>
                <time>2011-02-27T03:42:25Z</time>
            </trkpt>
            <trkpt lon="101.447565" lat="14.623117">
                <ele>321.217773</ele>
                <time>2011-02-27T03:42:30Z</time>
            </trkpt>
            <trkpt lon="101.448965" lat="14.623042">
                <ele>322.659668</ele>
                <time>2011-02-27T03:43:07Z</time>
            </trkpt>
            <trkpt lon="101.448860" lat="14.621226">
                <ele>325.062988</ele>
                <time>2011-02-27T03:43:55Z</time>
            </trkpt>
            <trkpt lon="101.451163" lat="14.620554">
                <ele>333.714722</ele>
                <time>2011-02-27T03:45:18Z</time>
            </trkpt>
            <trkpt lon="101.451839" lat="14.620403">
                <ele>333.714722</ele>
                <time>2011-02-27T03:45:48Z</time>
            </trkpt>
            <trkpt lon="101.451709" lat="14.619873">
                <ele>334.195435</ele>
                <time>2011-02-27T03:46:05Z</time>
            </trkpt>
            <trkpt lon="101.451394" lat="14.618736">
                <ele>331.311523</ele>
                <time>2011-02-27T03:46:42Z</time>
            </trkpt>
            <trkpt lon="101.451328" lat="14.617915">
                <ele>327.466186</ele>
                <time>2011-02-27T03:47:05Z</time>
            </trkpt>
            <trkpt lon="101.450651" lat="14.618134">
                <ele>331.311523</ele>
                <time>2011-02-27T03:47:35Z</time>
            </trkpt>
            <trkpt lon="101.449694" lat="14.618238">
                <ele>328.908325</ele>
                <time>2011-02-27T03:48:02Z</time>
            </trkpt>
            <trkpt lon="101.448305" lat="14.617612">
                <ele>324.101562</ele>
                <time>2011-02-27T03:48:45Z</time>
            </trkpt>
            <trkpt lon="101.447350" lat="14.617469">
                <ele>321.698364</ele>
                <time>2011-02-27T03:49:07Z</time>
            </trkpt>
            <trkpt lon="101.446927" lat="14.618336">
                <ele>322.659668</ele>
                <time>2011-02-27T03:49:39Z</time>
            </trkpt>
            <trkpt lon="101.446575" lat="14.618386">
                <ele>322.659668</ele>
                <time>2011-02-27T03:49:49Z</time>
            </trkpt>
            <trkpt lon="101.446271" lat="14.618808">
                <ele>324.101562</ele>
                <time>2011-02-27T03:50:02Z</time>
            </trkpt>
            <trkpt lon="101.445870" lat="14.618675">
                <ele>324.101562</ele>
                <time>2011-02-27T03:53:18Z</time>
            </trkpt>
            <trkpt lon="101.445884" lat="14.618759">
                <ele>321.698364</ele>
                <time>2011-02-27T03:54:55Z</time>
            </trkpt>
            <trkpt lon="101.445263" lat="14.618368">
                <ele>320.737060</ele>
                <time>2011-02-27T03:55:17Z</time>
            </trkpt>
            <trkpt lon="101.444629" lat="14.618279">
                <ele>322.178955</ele>
                <time>2011-02-27T03:55:34Z</time>
            </trkpt>
            <trkpt lon="101.444160" lat="14.618607">
                <ele>324.582275</ele>
                <time>2011-02-27T03:55:52Z</time>
            </trkpt>
            <trkpt lon="101.443949" lat="14.618289">
                <ele>326.504883</ele>
                <time>2011-02-27T03:56:04Z</time>
            </trkpt>
            <trkpt lon="101.444050" lat="14.617889">
                <ele>326.504883</ele>
                <time>2011-02-27T03:56:13Z</time>
            </trkpt>
            <trkpt lon="101.444617" lat="14.617284">
                <ele>325.062988</ele>
                <time>2011-02-27T03:56:29Z</time>
            </trkpt>
            <trkpt lon="101.445031" lat="14.613245">
                <ele>321.217773</ele>
                <time>2011-02-27T03:57:49Z</time>
            </trkpt>
            <trkpt lon="101.444968" lat="14.612895">
                <ele>319.775635</ele>
                <time>2011-02-27T03:57:56Z</time>
            </trkpt>
            <trkpt lon="101.445308" lat="14.612408">
                <ele>319.775635</ele>
                <time>2011-02-27T03:58:09Z</time>
            </trkpt>
            <trkpt lon="101.445028" lat="14.610554">
                <ele>319.295044</ele>
                <time>2011-02-27T03:58:46Z</time>
            </trkpt>
            <trkpt lon="101.444661" lat="14.609464">
                <ele>319.775635</ele>
                <time>2011-02-27T03:59:08Z</time>
            </trkpt>
            <trkpt lon="101.444880" lat="14.606256">
                <ele>320.256348</ele>
                <time>2011-02-27T04:00:08Z</time>
            </trkpt>
            <trkpt lon="101.444180" lat="14.603818">
                <ele>322.178955</ele>
                <time>2011-02-27T04:01:00Z</time>
            </trkpt>
            <trkpt lon="101.444085" lat="14.602789">
                <ele>322.659668</ele>
                <time>2011-02-27T04:01:22Z</time>
            </trkpt>
            <trkpt lon="101.444311" lat="14.601184">
                <ele>324.101562</ele>
                <time>2011-02-27T04:01:59Z</time>
            </trkpt>
            <trkpt lon="101.444303" lat="14.601104">
                <ele>324.101562</ele>
                <time>2011-02-27T04:02:03Z</time>
            </trkpt>
            <trkpt lon="101.443306" lat="14.600999">
                <ele>325.543579</ele>
                <time>2011-02-27T04:02:42Z</time>
            </trkpt>
            <trkpt lon="101.443569" lat="14.599638">
                <ele>326.504883</ele>
                <time>2011-02-27T04:03:16Z</time>
            </trkpt>
            <trkpt lon="101.443260" lat="14.599020">
                <ele>326.985596</ele>
                <time>2011-02-27T04:03:33Z</time>
            </trkpt>
            <trkpt lon="101.441961" lat="14.599333">
                <ele>328.427612</ele>
                <time>2011-02-27T04:04:04Z</time>
            </trkpt>
            <trkpt lon="101.440156" lat="14.599447">
                <ele>328.908325</ele>
                <time>2011-02-27T04:04:40Z</time>
            </trkpt>
            <trkpt lon="101.437479" lat="14.598610">
                <ele>333.234131</ele>
                <time>2011-02-27T04:05:41Z</time>
            </trkpt>
            <trkpt lon="101.436870" lat="14.598613">
                <ele>335.156738</ele>
                <time>2011-02-27T04:06:00Z</time>
            </trkpt>
            <trkpt lon="101.435863" lat="14.598901">
                <ele>335.637329</ele>
                <time>2011-02-27T04:06:52Z</time>
            </trkpt>
            <trkpt lon="101.434405" lat="14.599016">
                <ele>338.521484</ele>
                <time>2011-02-27T04:07:28Z</time>
            </trkpt>
            <trkpt lon="101.433564" lat="14.599032">
                <ele>337.560059</ele>
                <time>2011-02-27T04:07:45Z</time>
            </trkpt>
            <trkpt lon="101.432859" lat="14.598786">
                <ele>339.963379</ele>
                <time>2011-02-27T04:08:01Z</time>
            </trkpt>
            <trkpt lon="101.432485" lat="14.598348">
                <ele>340.444092</ele>
                <time>2011-02-27T04:08:18Z</time>
            </trkpt>
            <trkpt lon="101.432206" lat="14.596357">
                <ele>348.134644</ele>
                <time>2011-02-27T04:09:12Z</time>
            </trkpt>
            <trkpt lon="101.431904" lat="14.594337">
                <ele>354.383179</ele>
                <time>2011-02-27T04:10:05Z</time>
            </trkpt>
            <trkpt lon="101.431030" lat="14.593745">
                <ele>360.631714</ele>
                <time>2011-02-27T04:10:39Z</time>
            </trkpt>
            <trkpt lon="101.430329" lat="14.592852">
                <ele>368.322266</ele>
                <time>2011-02-27T04:11:23Z</time>
            </trkpt>
            <trkpt lon="101.429971" lat="14.592557">
                <ele>370.244873</ele>
                <time>2011-02-27T04:11:44Z</time>
            </trkpt>
            <trkpt lon="101.429106" lat="14.592087">
                <ele>373.609497</ele>
                <time>2011-02-27T04:12:15Z</time>
            </trkpt>
            <trkpt lon="101.428550" lat="14.591109">
                <ele>377.935425</ele>
                <time>2011-02-27T04:12:58Z</time>
            </trkpt>
            <trkpt lon="101.428661" lat="14.590827">
                <ele>379.858032</ele>
                <time>2011-02-27T04:13:10Z</time>
            </trkpt>
            <trkpt lon="101.428542" lat="14.590523">
                <ele>380.819458</ele>
                <time>2011-02-27T04:13:22Z</time>
            </trkpt>
            <trkpt lon="101.427662" lat="14.590189">
                <ele>379.858032</ele>
                <time>2011-02-27T04:13:47Z</time>
            </trkpt>
            <trkpt lon="101.426673" lat="14.589351">
                <ele>382.261352</ele>
                <time>2011-02-27T04:14:20Z</time>
            </trkpt>
            <trkpt lon="101.426457" lat="14.588806">
                <ele>386.106690</ele>
                <time>2011-02-27T04:14:36Z</time>
            </trkpt>
            <trkpt lon="101.426275" lat="14.587139">
                <ele>395.239136</ele>
                <time>2011-02-27T04:15:48Z</time>
            </trkpt>
            <trkpt lon="101.426071" lat="14.586566">
                <ele>402.929688</ele>
                <time>2011-02-27T04:16:24Z</time>
            </trkpt>
            <trkpt lon="101.425795" lat="14.586414">
                <ele>403.891113</ele>
                <time>2011-02-27T04:16:38Z</time>
            </trkpt>
            <trkpt lon="101.423884" lat="14.586248">
                <ele>397.161743</ele>
                <time>2011-02-27T04:17:20Z</time>
            </trkpt>
            <trkpt lon="101.423097" lat="14.585813">
                <ele>405.813721</ele>
                <time>2011-02-27T04:17:52Z</time>
            </trkpt>
            <trkpt lon="101.422733" lat="14.585821">
                <ele>402.929688</ele>
                <time>2011-02-27T04:18:05Z</time>
            </trkpt>
            <trkpt lon="101.422079" lat="14.585293">
                <ele>402.449097</ele>
                <time>2011-02-27T04:18:37Z</time>
            </trkpt>
            <trkpt lon="101.422148" lat="14.585174">
                <ele>410.620239</ele>
                <time>2011-02-27T04:19:10Z</time>
            </trkpt>
            <trkpt lon="101.422231" lat="14.584907">
                <ele>415.426880</ele>
                <time>2011-02-27T04:19:43Z</time>
            </trkpt>
            <trkpt lon="101.422509" lat="14.584413">
                <ele>434.653320</ele>
                <time>2011-02-27T04:21:00Z</time>
            </trkpt>
            <trkpt lon="101.422977" lat="14.584092">
                <ele>440.421265</ele>
                <time>2011-02-27T04:22:13Z</time>
            </trkpt>
            <trkpt lon="101.423489" lat="14.583365">
                <ele>429.846558</ele>
                <time>2011-02-27T04:23:27Z</time>
            </trkpt>
            <trkpt lon="101.424225" lat="14.583001">
                <ele>431.769165</ele>
                <time>2011-02-27T04:24:16Z</time>
            </trkpt>
            <trkpt lon="101.424627" lat="14.582701">
                <ele>430.327270</ele>
                <time>2011-02-27T04:24:53Z</time>
            </trkpt>
            <trkpt lon="101.425027" lat="14.582762">
                <ele>433.211304</ele>
                <time>2011-02-27T04:25:35Z</time>
            </trkpt>
            <trkpt lon="101.425435" lat="14.582546">
                <ele>432.250000</ele>
                <time>2011-02-27T04:26:11Z</time>
            </trkpt>
            <trkpt lon="101.425773" lat="14.582339">
                <ele>429.846558</ele>
                <time>2011-02-27T04:26:35Z</time>
            </trkpt>
            <trkpt lon="101.426012" lat="14.581820">
                <ele>421.675415</ele>
                <time>2011-02-27T04:27:10Z</time>
            </trkpt>
            <trkpt lon="101.426346" lat="14.581751">
                <ele>423.117432</ele>
                <time>2011-02-27T04:27:30Z</time>
            </trkpt>
            <trkpt lon="101.426556" lat="14.581433">
                <ele>420.233398</ele>
                <time>2011-02-27T04:27:53Z</time>
            </trkpt>
            <trkpt lon="101.427621" lat="14.581106">
                <ele>411.581665</ele>
                <time>2011-02-27T04:28:46Z</time>
            </trkpt>
            <trkpt lon="101.427712" lat="14.580947">
                <ele>411.100952</ele>
                <time>2011-02-27T04:28:54Z</time>
            </trkpt>
            <trkpt lon="101.428109" lat="14.580659">
                <ele>406.774902</ele>
                <time>2011-02-27T04:29:15Z</time>
            </trkpt>
            <trkpt lon="101.428161" lat="14.580552">
                <ele>403.891113</ele>
                <time>2011-02-27T04:29:20Z</time>
            </trkpt>
            <trkpt lon="101.428281" lat="14.580591">
                <ele>404.371704</ele>
                <time>2011-02-27T04:29:26Z</time>
            </trkpt>
            <trkpt lon="101.428708" lat="14.580308">
                <ele>402.449097</ele>
                <time>2011-02-27T04:29:51Z</time>
            </trkpt>
            <trkpt lon="101.429021" lat="14.580183">
                <ele>400.045898</ele>
                <time>2011-02-27T04:30:07Z</time>
            </trkpt>
            <trkpt lon="101.429095" lat="14.579986">
                <ele>398.123169</ele>
                <time>2011-02-27T04:30:22Z</time>
            </trkpt>
            <trkpt lon="101.429620" lat="14.579912">
                <ele>402.449097</ele>
                <time>2011-02-27T04:30:48Z</time>
            </trkpt>
            <trkpt lon="101.429942" lat="14.579861">
                <ele>401.968506</ele>
                <time>2011-02-27T04:31:03Z</time>
            </trkpt>
            <trkpt lon="101.430498" lat="14.579820">
                <ele>397.642456</ele>
                <time>2011-02-27T04:31:31Z</time>
            </trkpt>
            <trkpt lon="101.431103" lat="14.580192">
                <ele>389.951904</ele>
                <time>2011-02-27T04:32:05Z</time>
            </trkpt>
            <trkpt lon="101.431581" lat="14.580125">
                <ele>386.587402</ele>
                <time>2011-02-27T04:32:25Z</time>
            </trkpt>
            <trkpt lon="101.432543" lat="14.579451">
                <ele>381.300049</ele>
                <time>2011-02-27T04:32:53Z</time>
            </trkpt>
            <trkpt lon="101.433374" lat="14.579013">
                <ele>376.974243</ele>
                <time>2011-02-27T04:33:07Z</time>
            </trkpt>
            <trkpt lon="101.436364" lat="14.577731">
                <ele>376.493530</ele>
                <time>2011-02-27T04:34:13Z</time>
            </trkpt>
            <trkpt lon="101.436435" lat="14.581019">
                <ele>367.841553</ele>
                <time>2011-02-27T04:35:08Z</time>
            </trkpt>
            <trkpt lon="101.436829" lat="14.582211">
                <ele>366.880249</ele>
                <time>2011-02-27T04:35:32Z</time>
            </trkpt>
            <trkpt lon="101.437588" lat="14.582702">
                <ele>365.918945</ele>
                <time>2011-02-27T04:35:48Z</time>
            </trkpt>
            <trkpt lon="101.438357" lat="14.583449">
                <ele>364.476929</ele>
                <time>2011-02-27T04:36:06Z</time>
            </trkpt>
            <trkpt lon="101.438436" lat="14.583501">
                <ele>363.996338</ele>
                <time>2011-02-27T04:36:08Z</time>
            </trkpt>
            <trkpt lon="101.438925" lat="14.583111">
                <ele>363.515747</ele>
                <time>2011-02-27T04:36:24Z</time>
            </trkpt>
            <trkpt lon="101.439617" lat="14.583137">
                <ele>364.476929</ele>
                <time>2011-02-27T04:36:41Z</time>
            </trkpt>
            <trkpt lon="101.440204" lat="14.582687">
                <ele>367.841553</ele>
                <time>2011-02-27T04:37:11Z</time>
            </trkpt>
            <trkpt lon="101.440469" lat="14.582287">
                <ele>374.570801</ele>
                <time>2011-02-27T04:37:42Z</time>
            </trkpt>
            <trkpt lon="101.441260" lat="14.583208">
                <ele>382.261352</ele>
                <time>2011-02-27T04:38:37Z</time>
            </trkpt>
            <trkpt lon="101.441895" lat="14.583210">
                <ele>372.648193</ele>
                <time>2011-02-27T04:38:59Z</time>
            </trkpt>
            <trkpt lon="101.441780" lat="14.583149">
                <ele>368.802978</ele>
                <time>2011-02-27T04:39:02Z</time>
            </trkpt>
            <trkpt lon="101.441885" lat="14.583002">
                <ele>362.554321</ele>
                <time>2011-02-27T04:39:05Z</time>
            </trkpt>
            <trkpt lon="101.442429" lat="14.582549">
                <ele>360.631714</ele>
                <time>2011-02-27T04:39:14Z</time>
            </trkpt>
            <trkpt lon="101.443801" lat="14.582703">
                <ele>354.863769</ele>
                <time>2011-02-27T04:39:35Z</time>
            </trkpt>
            <trkpt lon="101.444767" lat="14.583270">
                <ele>349.576538</ele>
                <time>2011-02-27T04:39:52Z</time>
            </trkpt>
            <trkpt lon="101.445477" lat="14.584583">
                <ele>346.212036</ele>
                <time>2011-02-27T04:40:12Z</time>
            </trkpt>
            <trkpt lon="101.445707" lat="14.584834">
                <ele>344.770019</ele>
                <time>2011-02-27T04:40:17Z</time>
            </trkpt>
            <trkpt lon="101.446116" lat="14.584910">
                <ele>344.289429</ele>
                <time>2011-02-27T04:40:27Z</time>
            </trkpt>
            <trkpt lon="101.446873" lat="14.584369">
                <ele>343.808594</ele>
                <time>2011-02-27T04:40:46Z</time>
            </trkpt>
            <trkpt lon="101.446971" lat="14.584328">
                <ele>343.327881</ele>
                <time>2011-02-27T04:40:48Z</time>
            </trkpt>
            <trkpt lon="101.447280" lat="14.584465">
                <ele>342.847290</ele>
                <time>2011-02-27T04:40:55Z</time>
            </trkpt>
            <trkpt lon="101.448992" lat="14.587973">
                <ele>334.676148</ele>
                <time>2011-02-27T04:42:30Z</time>
            </trkpt>
            <trkpt lon="101.449836" lat="14.588074">
                <ele>333.234131</ele>
                <time>2011-02-27T04:43:03Z</time>
            </trkpt>
            <trkpt lon="101.449878" lat="14.588154">
                <ele>332.753540</ele>
                <time>2011-02-27T04:43:07Z</time>
            </trkpt>
            <trkpt lon="101.450212" lat="14.591020">
                <ele>333.234131</ele>
                <time>2011-02-27T04:44:36Z</time>
            </trkpt>
            <trkpt lon="101.450290" lat="14.591329">
                <ele>332.272827</ele>
                <time>2011-02-27T04:44:45Z</time>
            </trkpt>
            <trkpt lon="101.450690" lat="14.591353">
                <ele>331.792114</ele>
                <time>2011-02-27T04:44:56Z</time>
            </trkpt>
            <trkpt lon="101.450804" lat="14.591379">
                <ele>331.311523</ele>
                <time>2011-02-27T04:45:00Z</time>
            </trkpt>
            <trkpt lon="101.450926" lat="14.592746">
                <ele>329.869507</ele>
                <time>2011-02-27T04:45:44Z</time>
            </trkpt>
            <trkpt lon="101.452476" lat="14.592646">
                <ele>327.946777</ele>
                <time>2011-02-27T04:46:31Z</time>
            </trkpt>
            <trkpt lon="101.452678" lat="14.592463">
                <ele>329.388916</ele>
                <time>2011-02-27T04:46:39Z</time>
            </trkpt>
            <trkpt lon="101.453647" lat="14.592374">
                <ele>330.350220</ele>
                <time>2011-02-27T04:47:03Z</time>
            </trkpt>
            <trkpt lon="101.453843" lat="14.592214">
                <ele>331.311523</ele>
                <time>2011-02-27T04:47:26Z</time>
            </trkpt>
            <trkpt lon="101.453910" lat="14.592246">
                <ele>329.869507</ele>
                <time>2011-02-27T04:47:54Z</time>
            </trkpt>
            <trkpt lon="101.453871" lat="14.595649">
                <ele>329.388916</ele>
                <time>2011-02-27T04:49:08Z</time>
            </trkpt>
            <trkpt lon="101.454071" lat="14.596387">
                <ele>329.869507</ele>
                <time>2011-02-27T04:49:24Z</time>
            </trkpt>
            <trkpt lon="101.454681" lat="14.597335">
                <ele>329.869507</ele>
                <time>2011-02-27T04:49:47Z</time>
            </trkpt>
            <trkpt lon="101.457432" lat="14.600783">
                <ele>326.504883</ele>
                <time>2011-02-27T04:51:11Z</time>
            </trkpt>
            <trkpt lon="101.458014" lat="14.601353">
                <ele>326.024170</ele>
                <time>2011-02-27T04:51:26Z</time>
            </trkpt>
            <trkpt lon="101.460055" lat="14.601708">
                <ele>325.543579</ele>
                <time>2011-02-27T04:52:04Z</time>
            </trkpt>
            <trkpt lon="101.462596" lat="14.601362">
                <ele>326.985596</ele>
                <time>2011-02-27T04:53:00Z</time>
            </trkpt>
            <trkpt lon="101.466609" lat="14.601930">
                <ele>335.637329</ele>
                <time>2011-02-27T04:54:44Z</time>
            </trkpt>
            <trkpt lon="101.467674" lat="14.602352">
                <ele>336.598877</ele>
                <time>2011-02-27T04:55:12Z</time>
            </trkpt>
            <trkpt lon="101.468184" lat="14.602734">
                <ele>338.040772</ele>
                <time>2011-02-27T04:55:29Z</time>
            </trkpt>
            <trkpt lon="101.468885" lat="14.603206">
                <ele>339.002075</ele>
                <time>2011-02-27T04:55:54Z</time>
            </trkpt>
            <trkpt lon="101.472494" lat="14.605665">
                <ele>329.869507</ele>
                <time>2011-02-27T04:57:11Z</time>
            </trkpt>
            <trkpt lon="101.473475" lat="14.606804">
                <ele>328.427612</ele>
                <time>2011-02-27T04:57:48Z</time>
            </trkpt>
            <trkpt lon="101.473751" lat="14.606995">
                <ele>329.388916</ele>
                <time>2011-02-27T04:57:56Z</time>
            </trkpt>
            <trkpt lon="101.475362" lat="14.605607">
                <ele>328.908325</ele>
                <time>2011-02-27T04:58:43Z</time>
            </trkpt>
            <trkpt lon="101.475432" lat="14.605402">
                <ele>329.869507</ele>
                <time>2011-02-27T04:58:50Z</time>
            </trkpt>
            <trkpt lon="101.475973" lat="14.605456">
                <ele>328.908325</ele>
                <time>2011-02-27T04:59:03Z</time>
            </trkpt>
            <trkpt lon="101.476572" lat="14.605785">
                <ele>329.388916</ele>
                <time>2011-02-27T04:59:18Z</time>
            </trkpt>
            <trkpt lon="101.476924" lat="14.605710">
                <ele>329.869507</ele>
                <time>2011-02-27T04:59:28Z</time>
            </trkpt>
            <trkpt lon="101.477650" lat="14.605001">
                <ele>330.830933</ele>
                <time>2011-02-27T04:59:53Z</time>
            </trkpt>
            <trkpt lon="101.477675" lat="14.604746">
                <ele>332.272827</ele>
                <time>2011-02-27T05:00:00Z</time>
            </trkpt>
            <trkpt lon="101.477694" lat="14.604278">
                <ele>330.830933</ele>
                <time>2011-02-27T05:00:14Z</time>
            </trkpt>
            <trkpt lon="101.477979" lat="14.604179">
                <ele>331.311523</ele>
                <time>2011-02-27T05:00:23Z</time>
            </trkpt>
            <trkpt lon="101.491905" lat="14.600817">
                <ele>363.996338</ele>
                <time>2011-02-27T05:07:01Z</time>
            </trkpt>
            <trkpt lon="101.491668" lat="14.599180">
                <ele>367.841553</ele>
                <time>2011-02-27T05:08:23Z</time>
            </trkpt>
            <trkpt lon="101.491472" lat="14.598959">
                <ele>366.399536</ele>
                <time>2011-02-27T05:08:35Z</time>
            </trkpt>
            <trkpt lon="101.491451" lat="14.598681">
                <ele>367.360962</ele>
                <time>2011-02-27T05:08:52Z</time>
            </trkpt>
        </trkseg>
    </trk>
</gpx>